Time;durP1;ratioP1;P1;durP2;ratioP2;P2;SDS_P1;SDS_P2;PMS_P1;PMS_P2;Temp;Humidity;BMP_temperature;BMP_pressure;BME280_temperature;BME280_humidity;BME280_pressure;Samples;Min_cycle;Max_cycle;Signal;HPM_P1;HPM_P2
2021/12/12 00:02:19;;;;;;;;;;;4.80;99.90;;;;;;5126105;27;19919;-83
2021/12/12 00:04:47;;;;;;;;;;;4.80;99.90;;;;;;5150129;27;19966;-83
2021/12/12 00:07:15;;;;;;;;;;;4.90;99.90;;;;;;5117832;27;20026;-83
2021/12/12 00:09:44;;;;;;;;;;;4.90;99.90;;;;;;5117079;27;19926;-82
2021/12/12 00:12:14;;;;;;;;;;;4.90;99.90;;;;;;5134411;27;19920;-82
2021/12/12 00:14:40;;;;;;;;;;;4.90;99.90;;;;;;5131160;27;19966;-82
2021/12/12 00:17:07;;;;;;;;;;;4.90;99.90;;;;;;5117061;27;19958;-84
2021/12/12 00:19:35;;;;;;;;;;;4.90;99.90;;;;;;5133897;27;19939;-82
2021/12/12 00:22:02;;;;;;;;;;;4.90;99.90;;;;;;5117826;27;19919;-82
2021/12/12 00:24:28;;;;;;;;;;;4.90;99.90;;;;;;5133972;27;19923;-82
2021/12/12 00:26:55;;;;;;;;;;;5.00;99.90;;;;;;5116746;27;20002;-82
2021/12/12 00:29:21;;;;;;;;;;;5.00;99.90;;;;;;5134094;27;19925;-87
2021/12/12 00:31:49;;;;;;;;;;;5.00;99.90;;;;;;5117095;27;19920;-81
2021/12/12 00:34:16;;;;;;;;;;;5.00;99.90;;;;;;5133497;27;20287;-82
2021/12/12 00:36:42;;;;;;;;;;;5.00;99.90;;;;;;5133681;27;20378;-82
2021/12/12 00:39:11;;;;;;;;;;;5.00;99.90;;;;;;5116715;27;19933;-81
2021/12/12 00:41:48;;;;;;;;;;;5.00;99.90;;;;;;5133980;27;19926;-81
2021/12/12 00:44:14;;;;;;;;;;;5.00;99.90;;;;;;5133842;27;20478;-81
2021/12/12 00:46:40;;;;;;;;;;;4.90;99.90;;;;;;5133729;27;20298;-81
2021/12/12 00:49:06;;;;;;;;;;;4.90;99.90;;;;;;5117150;28;19945;-81
2021/12/12 00:51:33;;;;;;;;;;;4.90;99.90;;;;;;5116899;27;19923;-81
2021/12/12 00:53:59;;;;;;;;;;;4.90;99.90;;;;;;5134411;27;19926;-80
2021/12/12 00:56:25;;;;;;;;;;;4.90;99.90;;;;;;5124492;28;19975;-82
2021/12/12 00:58:51;;;;;;;;;;;4.90;99.90;;;;;;5134082;28;19973;-81
2021/12/12 01:01:23;;;;;;;;;;;4.80;99.90;;;;;;5099821;28;20007;-82
2021/12/12 01:03:52;;;;;;;;;;;4.80;99.90;;;;;;5133596;28;19919;-82
2021/12/12 01:06:18;;;;;;;;;;;4.80;99.90;;;;;;5116658;28;19920;-82
2021/12/12 01:08:44;;;;;;;;;;;4.80;99.90;;;;;;5133666;28;19931;-82
2021/12/12 01:11:16;;;;;;;;;;;4.80;99.90;;;;;;5118507;27;19942;-82
2021/12/12 01:13:42;;;;;;;;;;;4.70;99.90;;;;;;5154911;27;20264;-82
2021/12/12 01:16:13;;;;;;;;;;;4.70;99.90;;;;;;5154498;27;20360;-82
2021/12/12 01:18:41;;;;;;;;;;;4.70;99.90;;;;;;5137898;27;19926;-82
2021/12/12 01:21:11;;;;;;;;;;;4.70;99.90;;;;;;5137586;27;20296;-82
2021/12/12 01:23:44;;;;;;;;;;;4.70;99.90;;;;;;5155074;27;19926;-82
2021/12/12 01:26:09;;;;;;;;;;;4.70;99.90;;;;;;5137780;27;19926;-82
2021/12/12 01:28:36;;;;;;;;;;;4.60;99.90;;;;;;5120650;27;19920;-82
2021/12/12 01:31:04;;;;;;;;;;;4.70;99.90;;;;;;5120698;27;19919;-82
2021/12/12 01:33:34;;;;;;;;;;;4.80;99.90;;;;;;5138188;27;19942;-82
2021/12/12 01:36:23;;;;;;;;;;;4.70;99.90;;;;;;5104174;27;20014;-82
2021/12/12 01:38:54;;;;;;;;;;;4.80;99.90;;;;;;5120391;27;19924;-82
2021/12/12 01:41:23;;;;;;;;;;;4.80;99.90;;;;;;5137702;27;19964;-81
2021/12/12 01:43:50;;;;;;;;;;;4.80;99.90;;;;;;5120454;27;19923;-81
2021/12/12 01:46:15;;;;;;;;;;;4.80;99.90;;;;;;5120492;27;19919;-81
2021/12/12 01:48:50;;;;;;;;;;;4.80;99.90;;;;;;5119819;27;19919;-82
2021/12/12 01:51:16;;;;;;;;;;;4.80;99.90;;;;;;5137429;27;19934;-82
2021/12/12 01:53:44;;;;;;;;;;;4.90;99.90;;;;;;5172086;27;20010;-82
2021/12/12 01:56:42;;;;;;;;;;;4.90;99.90;;;;;;5154309;27;19920;-82
2021/12/12 01:59:09;;;;;;;;;;;4.90;99.90;;;;;;5108178;27;20006;-81
2021/12/12 02:01:55;;;;;;;;;;;4.90;99.90;;;;;;5171767;27;20256;-82
2021/12/12 02:04:23;;;;;;;;;;;4.80;99.90;;;;;;5119380;27;19919;-81
2021/12/12 02:06:49;;;;;;;;;;;4.90;99.90;;;;;;5136952;27;20010;-81
2021/12/12 02:09:16;;;;;;;;;;;4.90;99.90;;;;;;5102615;27;20359;-81
2021/12/12 02:11:43;;;;;;;;;;;4.90;99.90;;;;;;5102538;27;20010;-81
2021/12/12 02:14:11;;;;;;;;;;;4.90;99.90;;;;;;5119670;27;20367;-81
2021/12/12 02:16:41;;;;;;;;;;;4.90;99.90;;;;;;5119160;27;20010;-81
2021/12/12 02:19:07;;;;;;;;;;;4.90;99.90;;;;;;5136896;27;19926;-81
2021/12/12 02:21:41;;;;;;;;;;;4.90;99.90;;;;;;5118915;27;20012;-87
2021/12/12 02:35:14;;;;;;;;;;;5.00;99.90;;;;;;5122070;27;20093;-82
2021/12/12 02:37:41;;;;;;;;;;;5.00;99.90;;;;;;5103176;27;19919;-81
2021/12/12 02:40:10;;;;;;;;;;;5.00;99.90;;;;;;5136142;27;19919;-81
2021/12/12 02:42:36;;;;;;;;;;;5.00;99.90;;;;;;5135541;27;20419;-82
2021/12/12 02:45:04;;;;;;;;;;;5.10;99.90;;;;;;5119165;27;19919;-81
2021/12/12 02:47:34;;;;;;;;;;;5.10;99.90;;;;;;5136230;27;19919;-81
2021/12/12 02:50:20;;;;;;;;;;;5.10;99.90;;;;;;5119018;27;19919;-81
2021/12/12 02:52:48;;;;;;;;;;;5.10;99.90;;;;;;5134578;27;19919;-83
2021/12/12 02:55:17;;;;;;;;;;;5.10;99.90;;;;;;5170463;27;20010;-82
2021/12/12 02:57:42;;;;;;;;;;;5.10;99.90;;;;;;5135909;27;19919;-81
2021/12/12 03:00:10;;;;;;;;;;;5.20;99.90;;;;;;5118806;27;20379;-81
2021/12/12 03:02:43;;;;;;;;;;;5.30;99.90;;;;;;5135393;27;19920;-81
2021/12/12 03:05:09;;;;;;;;;;;5.30;99.90;;;;;;5118886;27;19920;-81
2021/12/12 03:07:35;;;;;;;;;;;5.40;99.90;;;;;;5135783;27;19926;-81
2021/12/12 03:10:00;;;;;;;;;;;5.40;99.90;;;;;;5118537;27;20263;-81
2021/12/12 03:12:31;;;;;;;;;;;5.50;99.90;;;;;;5097997;28;19920;-81
2021/12/12 03:14:59;;;;;;;;;;;5.50;99.90;;;;;;5117852;27;19925;-81
2021/12/12 03:17:24;;;;;;;;;;;5.50;99.90;;;;;;5134613;27;19926;-81
2021/12/12 03:20:01;;;;;;;;;;;5.50;99.90;;;;;;5137764;27;19919;-81
2021/12/12 03:22:27;;;;;;;;;;;5.50;99.90;;;;;;5134378;27;19926;-81
2021/12/12 03:24:53;;;;;;;;;;;5.50;99.90;;;;;;5135333;27;20014;-81
2021/12/12 03:27:20;;;;;;;;;;;5.50;99.90;;;;;;5135425;27;19970;-81
2021/12/12 03:29:46;;;;;;;;;;;5.50;99.90;;;;;;5117851;27;19945;-81
2021/12/12 03:32:14;;;;;;;;;;;5.60;99.90;;;;;;5135341;27;19919;-81
2021/12/12 03:34:43;;;;;;;;;;;5.70;99.90;;;;;;5134392;27;19919;-88
2021/12/12 03:37:12;;;;;;;;;;;5.60;99.90;;;;;;5135278;27;19927;-81
2021/12/12 03:39:39;;;;;;;;;;;5.60;99.90;;;;;;5117934;27;19919;-80
2021/12/12 03:42:07;;;;;;;;;;;5.60;99.90;;;;;;5117907;27;19920;-80
2021/12/12 03:44:35;;;;;;;;;;;5.60;99.90;;;;;;5135124;27;20060;-81
2021/12/12 03:47:06;;;;;;;;;;;5.50;99.90;;;;;;5117754;27;20762;-81
2021/12/12 03:49:32;;;;;;;;;;;5.60;99.90;;;;;;5117594;27;20014;-81
2021/12/12 03:51:58;;;;;;;;;;;5.70;99.90;;;;;;5134860;27;20061;-81
2021/12/12 03:54:24;;;;;;;;;;;5.70;99.90;;;;;;5100817;27;19951;-81
2021/12/12 03:56:49;;;;;;;;;;;5.70;99.90;;;;;;5117347;27;19920;-81
2021/12/12 03:59:15;;;;;;;;;;;5.70;99.90;;;;;;5118241;27;19972;-81
2021/12/12 04:01:44;;;;;;;;;;;5.80;99.90;;;;;;5134976;27;19973;-81
2021/12/12 04:04:12;;;;;;;;;;;5.70;99.90;;;;;;5117763;27;19919;-81
2021/12/12 04:06:38;;;;;;;;;;;5.70;99.90;;;;;;5117713;27;19942;-81
2021/12/12 04:09:05;;;;;;;;;;;5.70;99.90;;;;;;5100182;27;19920;-81
2021/12/12 04:11:33;;;;;;;;;;;5.80;99.90;;;;;;5117400;27;20340;-81
2021/12/12 04:13:58;;;;;;;;;;;5.80;99.90;;;;;;5134037;27;19927;-84
2021/12/12 04:16:26;;;;;;;;;;;5.80;99.90;;;;;;5116934;27;20271;-84
2021/12/12 04:18:51;;;;;;;;;;;5.80;99.90;;;;;;5117123;27;19919;-83
2021/12/12 04:21:19;;;;;;;;;;;5.80;99.90;;;;;;5116802;27;20294;-83
2021/12/12 04:23:45;;;;;;;;;;;5.80;99.90;;;;;;5134176;27;20404;-87
2021/12/12 04:26:12;;;;;;;;;;;5.80;99.90;;;;;;5117342;27;19919;-83
2021/12/12 04:28:39;;;;;;;;;;;5.80;99.90;;;;;;5116855;27;19927;-83
2021/12/12 04:31:04;;;;;;;;;;;5.70;99.90;;;;;;5116937;27;19919;-81
2021/12/12 04:33:30;;;;;;;;;;;5.80;99.90;;;;;;5116752;27;20064;-81
2021/12/12 04:35:56;;;;;;;;;;;5.70;99.90;;;;;;5131189;27;19919;-80
2021/12/12 04:38:22;;;;;;;;;;;5.80;99.90;;;;;;5098246;27;19920;-81
2021/12/12 04:40:48;;;;;;;;;;;5.80;99.90;;;;;;5151305;27;19919;-81
2021/12/12 04:43:13;;;;;;;;;;;5.80;99.90;;;;;;5116936;27;19942;-81
2021/12/12 04:45:57;;;;;;;;;;;5.90;99.90;;;;;;5115734;28;19927;-80
2021/12/12 04:51:39;;;;;;;;;;;5.80;99.90;;;;;;5128443;27;19919;-80
2021/12/12 04:54:28;;;;;;;;;;;5.80;99.90;;;;;;5116721;28;19920;-81
2021/12/12 04:57:03;;;;;;;;;;;5.80;99.90;;;;;;5124644;27;19931;-81
2021/12/12 04:59:31;;;;;;;;;;;5.80;99.90;;;;;;5116143;28;20382;-81
2021/12/12 05:02:00;;;;;;;;;;;5.80;99.90;;;;;;5133685;28;19945;-81
2021/12/12 05:04:46;;;;;;;;;;;5.80;99.90;;;;;;5133875;28;19923;-81
2021/12/12 05:07:15;;;;;;;;;;;5.80;99.90;;;;;;5133760;28;19920;-81
2021/12/12 05:09:55;;;;;;;;;;;5.80;99.90;;;;;;5151087;27;19919;-81
2021/12/12 05:12:24;;;;;;;;;;;5.80;99.90;;;;;;5116641;28;19980;-81
2021/12/12 05:14:57;;;;;;;;;;;5.80;99.90;;;;;;5133632;28;19988;-80
2021/12/12 05:17:31;;;;;;;;;;;5.80;99.90;;;;;;5133773;28;20415;-80
2021/12/12 05:19:58;;;;;;;;;;;5.80;99.90;;;;;;5115844;28;19927;-81
2021/12/12 05:22:36;;;;;;;;;;;5.80;99.90;;;;;;5116430;28;19919;-81
2021/12/12 05:25:04;;;;;;;;;;;5.80;99.90;;;;;;5116226;28;19920;-81
2021/12/12 05:27:31;;;;;;;;;;;5.80;99.90;;;;;;5133890;28;20282;-81
2021/12/12 05:29:59;;;;;;;;;;;5.70;99.90;;;;;;5133485;28;20359;-81
2021/12/12 05:32:25;;;;;;;;;;;5.70;99.90;;;;;;5116275;28;19927;-80
2021/12/12 05:34:51;;;;;;;;;;;5.80;99.90;;;;;;5133524;28;19926;-80
2021/12/12 05:37:18;;;;;;;;;;;5.80;99.90;;;;;;5099311;28;19971;-80
2021/12/12 05:39:44;;;;;;;;;;;5.80;99.90;;;;;;5133575;28;20358;-80
2021/12/12 05:42:11;;;;;;;;;;;5.80;99.90;;;;;;5115466;28;19969;-81
2021/12/12 05:44:37;;;;;;;;;;;5.80;99.90;;;;;;5116476;28;19970;-82
2021/12/12 05:47:05;;;;;;;;;;;5.80;99.90;;;;;;5133274;28;20294;-83
2021/12/12 05:49:32;;;;;;;;;;;5.80;99.90;;;;;;5116278;28;19972;-82
2021/12/12 05:51:58;;;;;;;;;;;5.80;99.90;;;;;;5133054;28;19919;-82
2021/12/12 05:54:24;;;;;;;;;;;5.80;99.90;;;;;;5099705;28;19982;-81
2021/12/12 05:56:50;;;;;;;;;;;5.80;99.90;;;;;;5116888;27;19926;-82
2021/12/12 05:59:16;;;;;;;;;;;5.80;99.90;;;;;;5119913;27;20267;-82
2021/12/12 06:01:42;;;;;;;;;;;5.80;99.90;;;;;;5136931;27;20352;-82
2021/12/12 06:04:08;;;;;;;;;;;5.80;99.90;;;;;;5119892;27;19919;-82
2021/12/12 06:06:36;;;;;;;;;;;5.80;99.90;;;;;;5119352;27;19923;-82
2021/12/12 06:09:05;;;;;;;;;;;5.80;99.90;;;;;;5119666;27;19920;-82
2021/12/12 06:11:32;;;;;;;;;;;5.80;99.90;;;;;;5136896;27;19920;-82
2021/12/12 06:13:59;;;;;;;;;;;5.90;99.90;;;;;;5119590;27;19966;-83
2021/12/12 06:16:25;;;;;;;;;;;5.90;99.90;;;;;;5136550;27;19919;-83
2021/12/12 06:18:52;;;;;;;;;;;5.90;99.90;;;;;;5119215;27;20017;-82
2021/12/12 06:21:18;;;;;;;;;;;5.90;99.90;;;;;;5136077;27;20367;-82
2021/12/12 06:23:43;;;;;;;;;;;5.90;99.90;;;;;;5119638;27;19923;-82
2021/12/12 06:26:09;;;;;;;;;;;6.00;99.90;;;;;;5119389;27;20356;-82
2021/12/12 06:28:36;;;;;;;;;;;5.90;99.90;;;;;;5136381;27;19926;-82
2021/12/12 06:31:03;;;;;;;;;;;6.00;99.90;;;;;;5119327;27;19965;-82
2021/12/12 06:33:31;;;;;;;;;;;6.10;99.90;;;;;;5119383;27;20245;-82
2021/12/12 06:35:57;;;;;;;;;;;6.00;99.90;;;;;;5136230;27;19923;-82
2021/12/12 06:38:23;;;;;;;;;;;6.00;99.90;;;;;;5118842;27;19967;-82
2021/12/12 06:40:49;;;;;;;;;;;6.00;99.90;;;;;;5136384;27;20014;-82
2021/12/12 06:43:17;;;;;;;;;;;6.10;99.90;;;;;;5119127;27;20268;-83
2021/12/12 06:45:42;;;;;;;;;;;6.10;99.90;;;;;;5136019;27;19919;-82
2021/12/12 06:48:10;;;;;;;;;;;6.10;99.90;;;;;;5135843;27;19933;-82
2021/12/12 06:50:38;;;;;;;;;;;6.10;99.90;;;;;;5136222;27;19926;-82
2021/12/12 06:53:04;;;;;;;;;;;6.10;99.90;;;;;;5135233;27;19946;-83
2021/12/12 06:55:31;;;;;;;;;;;6.10;99.90;;;;;;5135901;27;19927;-82
2021/12/12 06:57:56;;;;;;;;;;;6.20;99.90;;;;;;5136049;27;19919;-82
2021/12/12 07:00:23;;;;;;;;;;;6.20;99.90;;;;;;5135523;27;20270;-82
2021/12/12 07:02:49;;;;;;;;;;;6.30;99.90;;;;;;5097779;28;20416;-81
2021/12/12 07:05:16;;;;;;;;;;;6.20;99.90;;;;;;5118338;27;20013;-82
2021/12/12 07:07:43;;;;;;;;;;;6.30;99.90;;;;;;5118393;27;19977;-82
2021/12/12 07:10:10;;;;;;;;;;;6.30;99.90;;;;;;5134976;27;20261;-83
2021/12/12 07:12:36;;;;;;;;;;;6.40;99.90;;;;;;5135716;27;19967;-83
2021/12/12 07:15:03;;;;;;;;;;;6.30;99.90;;;;;;5118295;27;19920;-82
2021/12/12 07:17:29;;;;;;;;;;;6.30;99.90;;;;;;5118589;27;19919;-83
2021/12/12 07:19:55;;;;;;;;;;;6.40;99.90;;;;;;5118216;27;19965;-82
2021/12/12 07:22:21;;;;;;;;;;;6.40;99.90;;;;;;5118331;27;19919;-82
2021/12/12 07:24:47;;;;;;;;;;;6.40;99.90;;;;;;5117848;27;19919;-82
2021/12/12 07:27:13;;;;;;;;;;;6.50;99.90;;;;;;5116626;27;19920;-88
2021/12/12 07:29:39;;;;;;;;;;;6.60;99.90;;;;;;5150288;27;19960;-85
2021/12/12 07:32:05;;;;;;;;;;;6.60;99.90;;;;;;5100896;27;19919;-86
2021/12/12 07:34:31;;;;;;;;;;;6.60;99.90;;;;;;5135234;27;19934;-85
2021/12/12 07:36:59;;;;;;;;;;;6.60;99.90;;;;;;5134809;27;20006;-84
2021/12/12 07:39:24;;;;;;;;;;;6.70;99.90;;;;;;5134830;27;19923;-85
2021/12/12 07:41:51;;;;;;;;;;;6.70;99.90;;;;;;5132877;27;19972;-85
2021/12/12 07:44:19;;;;;;;;;;;6.80;99.90;;;;;;5134290;27;20006;-85
2021/12/12 07:46:45;;;;;;;;;;;6.80;99.90;;;;;;5117988;27;20309;-84
2021/12/12 07:49:11;;;;;;;;;;;6.90;99.90;;;;;;5100616;27;19920;-85
2021/12/12 07:51:38;;;;;;;;;;;6.90;99.90;;;;;;5135106;27;20351;-85
2021/12/12 07:54:05;;;;;;;;;;;7.00;99.90;;;;;;5134596;27;19926;-85
2021/12/12 07:56:32;;;;;;;;;;;6.90;99.90;;;;;;5145166;27;19923;-84
2021/12/12 07:58:59;;;;;;;;;;;7.00;99.90;;;;;;5131380;27;19920;-86
2021/12/12 08:01:25;;;;;;;;;;;7.10;99.90;;;;;;5113800;28;19927;-84
2021/12/12 08:03:52;;;;;;;;;;;7.10;99.90;;;;;;5131051;27;19920;-83
2021/12/12 08:06:18;;;;;;;;;;;7.10;99.90;;;;;;5113466;28;20361;-82
2021/12/12 08:08:44;;;;;;;;;;;7.20;99.90;;;;;;5131313;27;19924;-80
2021/12/12 08:11:10;;;;;;;;;;;7.30;99.90;;;;;;5146532;27;19923;-82
2021/12/12 08:13:36;;;;;;;;;;;7.20;99.90;;;;;;5134429;27;20244;-82
2021/12/12 08:16:04;;;;;;;;;;;7.30;99.90;;;;;;5136281;27;19927;-82
2021/12/12 08:18:30;;;;;;;;;;;7.30;99.90;;;;;;5106766;27;20005;-82
2021/12/12 08:20:55;;;;;;;;;;;7.30;99.90;;;;;;5116144;27;19974;-81
2021/12/12 08:23:22;;;;;;;;;;;7.40;99.90;;;;;;5116484;27;20018;-81
2021/12/12 08:25:49;;;;;;;;;;;7.40;99.90;;;;;;5117389;27;19920;-81
2021/12/12 08:28:15;;;;;;;;;;;7.50;99.90;;;;;;5110941;28;19920;-82
2021/12/12 08:30:41;;;;;;;;;;;7.40;99.90;;;;;;5130717;27;19968;-81
2021/12/12 08:33:07;;;;;;;;;;;7.40;99.90;;;;;;5131041;27;19935;-82
2021/12/12 08:35:33;;;;;;;;;;;7.40;99.90;;;;;;5079394;28;19943;-81
2021/12/12 08:37:59;;;;;;;;;;;7.50;99.90;;;;;;5104318;27;20352;-81
2021/12/12 08:40:29;;;;;;;;;;;7.50;99.90;;;;;;5116736;27;19926;-82
2021/12/12 08:42:55;;;;;;;;;;;7.50;99.90;;;;;;5133804;27;19919;-82
2021/12/12 08:45:23;;;;;;;;;;;7.60;99.90;;;;;;5116069;27;19948;-82
2021/12/12 08:47:49;;;;;;;;;;;7.50;99.90;;;;;;5116677;28;19919;-83
2021/12/12 08:50:18;;;;;;;;;;;7.60;99.90;;;;;;5116311;27;19923;-82
2021/12/12 08:52:46;;;;;;;;;;;7.60;99.90;;;;;;5133856;27;19923;-83
2021/12/12 08:55:18;;;;;;;;;;;7.60;99.90;;;;;;5132623;27;19920;-83
2021/12/12 08:57:59;;;;;;;;;;;7.60;99.90;;;;;;5116934;28;19945;-83
2021/12/12 09:00:26;;;;;;;;;;;7.60;99.90;;;;;;5114887;28;19920;-83
2021/12/12 09:02:52;;;;;;;;;;;7.70;99.90;;;;;;5168414;27;19919;-83
2021/12/12 09:05:21;;;;;;;;;;;7.70;99.90;;;;;;5150735;27;19919;-82
2021/12/12 09:07:48;;;;;;;;;;;7.80;99.90;;;;;;5133646;28;19919;-83
2021/12/12 09:10:21;;;;;;;;;;;7.90;99.90;;;;;;5133769;28;19924;-83
2021/12/12 09:12:54;;;;;;;;;;;7.90;99.90;;;;;;5132955;28;19965;-85
2021/12/12 09:15:26;;;;;;;;;;;7.90;99.90;;;;;;5112887;28;19973;-85
2021/12/12 09:17:54;;;;;;;;;;;7.90;99.90;;;;;;5130333;28;20237;-85
2021/12/12 09:20:23;;;;;;;;;;;7.90;99.90;;;;;;5129799;28;19920;-88
2021/12/12 09:22:59;;;;;;;;;;;8.00;99.90;;;;;;5124929;28;20013;-84
2021/12/12 09:25:34;;;;;;;;;;;8.00;99.90;;;;;;5114800;28;19931;-84
2021/12/12 09:28:15;;;;;;;;;;;8.10;99.90;;;;;;5107835;28;19998;-87
2021/12/12 09:32:00;;;;;;;;;;;8.10;99.90;;;;;;5116564;27;1959227;-82
2021/12/12 09:34:39;;;;;;;;;;;8.20;99.90;;;;;;5153579;27;19927;-83
2021/12/12 09:37:11;;;;;;;;;;;8.20;99.90;;;;;;5121397;27;19988;-83
2021/12/12 09:39:46;;;;;;;;;;;8.30;99.90;;;;;;5157364;27;19971;-79
2021/12/12 09:42:24;;;;;;;;;;;8.30;99.90;;;;;;5154497;27;19973;-85
2021/12/12 09:45:07;;;;;;;;;;;8.40;99.90;;;;;;5124006;27;19962;-81
2021/12/12 09:53:47;;;;;;;;;;;8.40;99.90;;;;;;5134835;27;19965;-78
2021/12/12 09:56:25;;;;;;;;;;;8.40;99.90;;;;;;5132685;27;19934;-79
2021/12/12 09:58:55;;;;;;;;;;;8.40;99.90;;;;;;5133026;27;20041;-80
2021/12/12 10:01:20;;;;;;;;;;;8.40;99.90;;;;;;5133049;27;20373;-84
2021/12/12 10:04:05;;;;;;;;;;;8.50;99.90;;;;;;5116702;27;20030;-81
2021/12/12 10:06:36;;;;;;;;;;;8.50;99.90;;;;;;5133753;27;20322;-81
2021/12/12 10:09:05;;;;;;;;;;;8.50;99.90;;;;;;5133614;27;19981;-82
2021/12/12 10:11:43;;;;;;;;;;;8.60;99.90;;;;;;5115194;27;19923;-83
2021/12/12 10:14:08;;;;;;;;;;;8.70;99.90;;;;;;5117260;27;20387;-82
2021/12/12 10:16:36;;;;;;;;;;;8.70;99.90;;;;;;5135466;27;19923;-82
2021/12/12 10:19:07;;;;;;;;;;;8.70;99.90;;;;;;5133260;27;19923;-81
2021/12/12 10:21:38;;;;;;;;;;;8.80;99.90;;;;;;5142745;27;20287;-82
2021/12/12 10:24:04;;;;;;;;;;;8.80;99.90;;;;;;5136703;27;20355;-82
2021/12/12 10:26:40;;;;;;;;;;;8.90;99.90;;;;;;5115941;27;19947;-82
2021/12/12 10:29:13;;;;;;;;;;;8.90;99.90;;;;;;5151631;27;19973;-81
2021/12/12 10:32:02;;;;;;;;;;;8.90;99.90;;;;;;5136113;27;19930;-81
2021/12/12 10:34:41;;;;;;;;;;;8.90;99.90;;;;;;5142550;27;19927;-81
2021/12/12 10:37:09;;;;;;;;;;;9.00;99.90;;;;;;5153763;27;19987;-82
2021/12/12 10:39:42;;;;;;;;;;;9.00;99.90;;;;;;5134539;27;19953;-82
2021/12/12 10:42:19;;;;;;;;;;;9.00;99.90;;;;;;5146538;27;19964;-82
2021/12/12 10:44:57;;;;;;;;;;;9.10;99.90;;;;;;5122348;27;19952;-80
2021/12/12 10:47:36;;;;;;;;;;;9.10;99.90;;;;;;5139734;27;19946;-81
2021/12/12 10:50:11;;;;;;;;;;;9.20;99.90;;;;;;5131217;27;19930;-82
2021/12/12 10:52:56;;;;;;;;;;;9.20;99.90;;;;;;5128363;27;19924;-81
2021/12/12 10:55:24;;;;;;;;;;;9.30;99.90;;;;;;5118948;27;19931;-81
2021/12/12 10:58:00;;;;;;;;;;;9.40;99.90;;;;;;5118692;27;19976;-82
2021/12/12 11:00:27;;;;;;;;;;;9.40;99.90;;;;;;5101789;27;19923;-82
2021/12/12 11:03:04;;;;;;;;;;;9.40;99.90;;;;;;5115318;27;19923;-84
2021/12/12 11:05:30;;;;;;;;;;;9.40;99.90;;;;;;5138564;27;20022;-89
2021/12/12 11:08:19;;;;;;;;;;;9.50;99.90;;;;;;5138928;27;20429;-83
2021/12/12 11:10:47;;;;;;;;;;;9.50;99.90;;;;;;5137732;27;20444;-80
2021/12/12 11:13:12;;;;;;;;;;;9.50;99.90;;;;;;5138667;27;19923;-83
2021/12/12 11:15:41;;;;;;;;;;;9.60;99.90;;;;;;5138233;27;19934;-85
2021/12/12 11:18:09;;;;;;;;;;;9.60;99.90;;;;;;5128176;27;19923;-84
2021/12/12 11:20:39;;;;;;;;;;;9.60;99.90;;;;;;5136043;27;19923;-84
2021/12/12 11:23:08;;;;;;;;;;;9.70;99.90;;;;;;5122192;27;19923;-85
2021/12/12 11:25:33;;;;;;;;;;;9.70;99.90;;;;;;5100369;27;19929;-83
2021/12/12 11:28:02;;;;;;;;;;;9.80;99.90;;;;;;5112861;27;19924;-82
2021/12/12 11:30:30;;;;;;;;;;;9.80;99.90;;;;;;5117463;27;19979;-84
2021/12/12 11:32:58;;;;;;;;;;;9.80;99.90;;;;;;5117232;27;20388;-86
2021/12/12 11:35:25;;;;;;;;;;;9.80;99.90;;;;;;5100554;27;19923;-84
2021/12/12 11:37:56;;;;;;;;;;;9.80;99.90;;;;;;5108401;27;19979;-84
2021/12/12 11:40:25;;;;;;;;;;;9.80;99.90;;;;;;5112188;27;19923;-81
2021/12/12 11:42:57;;;;;;;;;;;9.80;99.90;;;;;;5120411;27;20059;-80
2021/12/12 11:45:29;;;;;;;;;;;9.80;99.90;;;;;;5124518;27;19946;-83
2021/12/12 11:48:02;;;;;;;;;;;9.80;99.90;;;;;;5137489;27;19923;-82
2021/12/12 11:50:27;;;;;;;;;;;9.80;99.90;;;;;;5120379;27;19923;-82
2021/12/12 11:52:55;;;;;;;;;;;9.80;99.90;;;;;;5111391;27;20437;-82
2021/12/12 11:55:21;;;;;;;;;;;9.80;99.90;;;;;;5103619;27;20256;-82
2021/12/12 11:58:16;;;;;;;;;;;9.80;99.90;;;;;;5126939;27;19930;-81
2021/12/12 12:00:46;;;;;;;;;;;9.70;99.90;;;;;;5082891;27;20017;-84
2021/12/12 12:03:30;;;;;;;;;;;9.70;99.90;;;;;;5133755;27;19930;-80
2021/12/12 12:05:56;;;;;;;;;;;9.80;99.90;;;;;;5120127;27;20323;-84
2021/12/12 12:08:26;;;;;;;;;;;9.80;99.90;;;;;;5119212;27;20001;-84
2021/12/12 12:11:11;;;;;;;;;;;9.80;99.90;;;;;;5128056;27;19923;-82
2021/12/12 12:13:46;;;;;;;;;;;9.80;99.90;;;;;;5114902;27;19930;-82
2021/12/12 12:16:27;;;;;;;;;;;9.80;99.90;;;;;;5122701;27;19927;-83
2021/12/12 12:19:05;;;;;;;;;;;9.90;99.90;;;;;;5119716;27;19927;-77
2021/12/12 12:21:38;;;;;;;;;;;9.90;99.90;;;;;;5120186;27;20283;-79
2021/12/12 12:24:22;;;;;;;;;;;9.90;99.90;;;;;;5120632;27;19923;-89
2021/12/12 12:26:51;;;;;;;;;;;10.00;99.90;;;;;;5136281;27;20396;-80
2021/12/12 12:29:30;;;;;;;;;;;10.00;99.90;;;;;;5134067;27;19931;-84
2021/12/12 12:32:15;;;;;;;;;;;10.00;99.90;;;;;;5107252;28;20689;-83
2021/12/12 12:34:49;;;;;;;;;;;10.00;99.90;;;;;;5099347;28;20384;-83
2021/12/12 12:37:36;;;;;;;;;;;10.00;99.90;;;;;;5103673;27;20030;-83
2021/12/12 12:40:20;;;;;;;;;;;10.00;99.90;;;;;;5111993;27;19934;-83
2021/12/12 12:43:04;;;;;;;;;;;10.10;99.90;;;;;;5122648;27;20004;-85
2021/12/12 12:45:49;;;;;;;;;;;10.00;99.90;;;;;;5124460;27;19963;-89
2021/12/12 12:48:33;;;;;;;;;;;10.00;99.90;;;;;;5128201;27;20017;-86
2021/12/12 12:51:05;;;;;;;;;;;10.00;99.90;;;;;;5109702;28;19928;-84
2021/12/12 12:53:49;;;;;;;;;;;10.10;99.90;;;;;;5105663;27;19931;-83
2021/12/12 12:56:34;;;;;;;;;;;10.10;99.90;;;;;;5122009;27;19924;-85
2021/12/12 12:59:06;;;;;;;;;;;10.00;99.90;;;;;;5115162;27;20387;-82
2021/12/12 13:01:44;;;;;;;;;;;10.00;99.90;;;;;;5122020;27;19934;-83
2021/12/12 13:04:15;;;;;;;;;;;10.10;99.90;;;;;;5102056;28;19931;-83
2021/12/12 13:06:54;;;;;;;;;;;10.00;99.90;;;;;;5114812;27;19973;-84
2021/12/12 13:09:23;;;;;;;;;;;10.00;99.90;;;;;;5112399;27;19923;-83
2021/12/12 13:12:08;;;;;;;;;;;10.00;99.90;;;;;;5111279;28;19931;-82
2021/12/12 13:15:03;;;;;;;;;;;10.10;99.90;;;;;;5123466;27;19946;-83
2021/12/12 13:17:49;;;;;;;;;;;10.10;99.90;;;;;;5097226;28;19965;-83
2021/12/12 13:20:34;;;;;;;;;;;10.10;99.90;;;;;;5112606;28;19931;-81
2021/12/12 13:23:15;;;;;;;;;;;10.10;99.90;;;;;;5120973;28;19924;-81
2021/12/12 13:25:56;;;;;;;;;;;10.10;99.90;;;;;;5111548;28;20007;-81
2021/12/12 13:28:31;;;;;;;;;;;10.10;99.90;;;;;;5111723;28;20002;-83
2021/12/12 13:31:13;;;;;;;;;;;10.10;99.90;;;;;;5118972;28;19924;-83
2021/12/12 13:34:00;;;;;;;;;;;10.00;99.90;;;;;;5107374;28;20355;-84
2021/12/12 13:36:38;;;;;;;;;;;10.00;99.90;;;;;;5127040;28;19924;-81
2021/12/12 13:39:13;;;;;;;;;;;10.00;99.90;;;;;;5127652;28;19923;-82
2021/12/12 13:41:55;;;;;;;;;;;10.00;99.90;;;;;;5132472;28;19927;-83
2021/12/12 13:44:29;;;;;;;;;;;10.00;99.90;;;;;;5128710;28;20280;-82
2021/12/12 13:47:01;;;;;;;;;;;9.90;99.90;;;;;;5095250;28;19964;-80
2021/12/12 13:49:28;;;;;;;;;;;9.90;99.90;;;;;;5112554;28;19931;-81
2021/12/12 13:51:54;;;;;;;;;;;9.90;99.90;;;;;;5105434;28;19928;-82
2021/12/12 13:54:27;;;;;;;;;;;9.90;99.90;;;;;;5114622;28;20308;-85
2021/12/12 13:57:02;;;;;;;;;;;9.90;99.90;;;;;;5121570;28;20387;-83
2021/12/12 13:59:27;;;;;;;;;;;9.90;99.90;;;;;;5115948;28;20127;-85
2021/12/12 14:01:53;;;;;;;;;;;9.90;99.90;;;;;;5132700;28;19923;-82
2021/12/12 14:04:37;;;;;;;;;;;9.90;99.90;;;;;;5132665;28;19927;-87
2021/12/12 14:07:04;;;;;;;;;;;9.90;99.90;;;;;;5111071;28;19943;-85
2021/12/12 14:09:30;;;;;;;;;;;9.80;99.90;;;;;;5104007;28;19927;-87
2021/12/12 14:11:59;;;;;;;;;;;9.80;99.90;;;;;;5115079;28;19927;-85
2021/12/12 14:14:43;;;;;;;;;;;9.80;99.90;;;;;;5101343;28;19947;-87
2021/12/12 14:17:13;;;;;;;;;;;9.80;99.90;;;;;;5095969;28;20342;-86
2021/12/12 14:19:43;;;;;;;;;;;9.80;99.90;;;;;;5099999;27;19976;-82
2021/12/12 14:22:09;;;;;;;;;;;9.80;99.90;;;;;;5136099;27;20042;-83
2021/12/12 14:24:35;;;;;;;;;;;9.80;99.90;;;;;;5135350;27;19974;-81
2021/12/12 14:27:02;;;;;;;;;;;9.80;99.90;;;;;;5129342;27;20444;-80
2021/12/12 14:29:31;;;;;;;;;;;9.80;99.90;;;;;;5135921;27;19928;-83
2021/12/12 14:32:00;;;;;;;;;;;9.70;99.90;;;;;;5118056;27;19923;-83
2021/12/12 14:34:29;;;;;;;;;;;9.70;99.90;;;;;;5135189;27;20384;-82
2021/12/12 14:36:55;;;;;;;;;;;9.70;99.90;;;;;;5124331;27;19923;-82
2021/12/12 14:39:23;;;;;;;;;;;9.80;99.90;;;;;;5101157;27;19980;-81
2021/12/12 14:41:58;;;;;;;;;;;9.70;99.90;;;;;;5114041;27;19924;-82
2021/12/12 14:44:32;;;;;;;;;;;9.80;99.90;;;;;;5132061;27;19949;-83
2021/12/12 14:47:02;;;;;;;;;;;9.70;99.90;;;;;;5121332;27;19923;-83
2021/12/12 14:49:31;;;;;;;;;;;9.70;99.90;;;;;;5135440;27;19963;-80
2021/12/12 14:52:18;;;;;;;;;;;9.80;99.90;;;;;;5133523;27;19927;-81
2021/12/12 14:54:46;;;;;;;;;;;9.80;99.90;;;;;;5105503;27;19936;-81
2021/12/12 14:57:14;;;;;;;;;;;9.80;99.90;;;;;;5099944;28;20526;-82
2021/12/12 14:59:41;;;;;;;;;;;9.70;99.90;;;;;;5117728;27;19930;-81
2021/12/12 15:02:13;;;;;;;;;;;9.80;99.90;;;;;;5097471;28;19924;-81
2021/12/12 15:04:41;;;;;;;;;;;9.80;99.90;;;;;;5114834;28;20292;-82
2021/12/12 15:07:08;;;;;;;;;;;9.70;99.90;;;;;;5114400;28;19923;-81
2021/12/12 15:09:44;;;;;;;;;;;9.70;99.90;;;;;;5123583;27;19924;-81